Alma Center, Wisconsin
Current Conditions -  °F | °C
As of 9:35 PM on Saturday 22 Nov 2014 (Local Time) from KBCK Reporting Station
Moderate Fog Moderate Fog  
Wind Chill: 38°   Ceiling: 300
Heat Index: 38°   Visibility: 0.25mi
Dew Point: 38°   Wind: 0mph
Humidity: 100%   Direction: NA
Pressure: 29.66"   Gusts: NA
Location:  44.44°N, 90.91°W
Report Text: KBCK 230335Z AUTO 00000KT 1/4SM FG BKN003 OVC007 03/03 A2966 RMK AO2 T00310031
Loading
Personal Weather Stations






























Interactive Weather Map New forecast layout! Learn more

10-Day Weather Forecast

Advertisements
Track Severe Weather on mobile